createdAt,value
2023-06-24T00:00:54.682Z,25.12
2023-06-24T00:06:00.889Z,25.12
2023-06-24T00:11:30.996Z,25.08
2023-06-24T00:16:40.470Z,25.11
2023-06-24T00:21:46.642Z,25.10
2023-06-24T00:26:55.629Z,25.08
2023-06-24T00:31:59.391Z,25.03
2023-06-24T00:37:13.021Z,24.97
2023-06-24T00:42:15.406Z,24.94
2023-06-24T00:47:21.494Z,24.99
2023-06-24T00:52:30.394Z,25.03
2023-06-24T00:57:47.268Z,25.03
2023-06-24T01:15:39.828Z,25.53
2023-06-24T01:21:05.102Z,25.40
2023-06-24T01:26:47.101Z,25.31
2023-06-24T01:32:14.577Z,25.19
2023-06-24T01:37:43.958Z,25.11
2023-06-24T01:42:51.300Z,25.05
2023-06-24T01:48:14.118Z,24.99
2023-06-24T01:53:24.378Z,24.97
2023-06-24T01:58:38.248Z,24.90
2023-06-24T02:03:46.428Z,24.87
2023-06-24T02:09:02.164Z,24.83
2023-06-24T02:14:11.315Z,24.78
2023-06-24T02:19:22.664Z,24.74
2023-06-24T02:24:52.200Z,24.71
2023-06-24T02:30:00.177Z,24.69
2023-06-24T02:35:04.598Z,24.69
2023-06-24T02:40:11.798Z,24.68
2023-06-24T02:45:20.314Z,24.68
2023-06-24T02:50:31.497Z,24.69
2023-06-24T02:55:43.410Z,24.70
2023-06-24T03:00:53.286Z,24.69
2023-06-24T03:06:26.198Z,24.67
2023-06-24T03:11:48.538Z,24.66
2023-06-24T03:16:58.551Z,24.66
2023-06-24T03:22:09.030Z,24.64
2023-06-24T03:27:17.683Z,24.64
2023-06-24T03:32:20.920Z,24.64
2023-06-24T03:37:31.478Z,24.63
2023-06-24T03:42:37.229Z,24.58
2023-06-24T03:47:42.122Z,24.57
2023-06-24T03:52:48.343Z,24.55
2023-06-24T03:57:58.437Z,24.54
2023-06-24T04:09:25.046Z,24.53
2023-06-24T04:14:38.337Z,24.53
2023-06-24T04:19:47.766Z,24.55
2023-06-24T04:24:52.430Z,24.56
2023-06-24T04:29:58.815Z,24.55
2023-06-24T04:40:21.271Z,24.51
2023-06-24T04:45:29.322Z,24.46
2023-06-24T04:50:34.378Z,24.42
2023-06-24T04:55:47.916Z,24.42
2023-06-24T05:00:56.541Z,24.39
2023-06-24T05:06:02.013Z,24.39
2023-06-24T05:11:08.802Z,24.41
2023-06-24T05:16:18.621Z,24.42
2023-06-24T05:21:25.516Z,24.43
2023-06-24T05:26:31.948Z,24.45
2023-06-24T05:37:14.234Z,24.51
2023-06-24T05:47:52.324Z,24.65
2023-06-24T05:53:02.790Z,24.73
2023-06-24T05:58:40.862Z,24.81
2023-06-24T06:03:54.840Z,24.89
2023-06-24T06:09:01.451Z,24.96
2023-06-24T06:14:16.032Z,25.03
2023-06-24T06:19:25.883Z,25.09
2023-06-24T06:24:31.399Z,25.17
2023-06-24T06:35:20.718Z,25.34
2023-06-24T06:45:45.560Z,25.57
2023-06-24T06:50:54.691Z,25.60
2023-06-24T06:55:59.240Z,25.62
2023-06-24T07:01:31.326Z,25.69
2023-06-24T07:06:40.546Z,25.73
2023-06-24T07:11:54.290Z,25.74
2023-06-24T07:17:04.557Z,25.74
2023-06-24T07:22:11.791Z,25.81
2023-06-24T07:27:23.619Z,25.92
2023-06-24T07:32:32.378Z,26.01
2023-06-24T07:37:47.932Z,25.96
2023-06-24T07:42:56.516Z,25.85
2023-06-24T07:48:02.555Z,25.77
2023-06-24T07:53:11.726Z,25.58
2023-06-24T07:58:28.510Z,25.47
2023-06-24T08:03:36.219Z,25.28
2023-06-24T08:08:50.718Z,25.32
2023-06-24T08:14:06.708Z,25.42
2023-06-24T08:19:12.471Z,25.55
2023-06-24T08:24:27.007Z,25.70
2023-06-24T08:29:30.448Z,25.89
2023-06-24T08:34:37.744Z,25.81
2023-06-24T08:40:15.572Z,25.69
2023-06-24T08:45:19.956Z,25.68
2023-06-24T08:50:32.708Z,25.67
2023-06-24T08:55:54.855Z,25.60
2023-06-24T09:01:04.141Z,25.59
2023-06-24T09:06:07.800Z,25.58
2023-06-24T09:11:27.318Z,25.58
2023-06-24T09:16:33.111Z,25.61
2023-06-24T09:27:04.999Z,25.91
2023-06-24T09:32:10.648Z,26.18
2023-06-24T09:37:36.212Z,26.45
2023-06-24T09:43:26.131Z,26.79
2023-06-24T09:48:28.784Z,26.87
2023-06-24T09:53:39.685Z,26.89
2023-06-24T09:58:59.659Z,27.04
2023-06-24T10:09:32.625Z,27.23
2023-06-24T10:20:07.528Z,27.50
2023-06-24T10:30:36.576Z,27.67
2023-06-24T10:36:03.175Z,27.68
2023-06-24T10:41:45.088Z,27.71
2023-06-24T10:47:02.500Z,27.78
2023-06-24T10:52:13.585Z,27.80
2023-06-24T10:57:44.827Z,27.71
2023-06-24T11:02:53.651Z,27.70
2023-06-24T11:08:00.915Z,27.72
2023-06-24T11:13:13.370Z,27.68
2023-06-24T11:18:22.953Z,27.65
2023-06-24T11:23:28.066Z,27.74
2023-06-24T11:34:20.910Z,27.80
2023-06-24T11:39:28.122Z,27.79
2023-06-24T11:44:34.368Z,27.88
2023-06-24T11:50:45.648Z,28.02
2023-06-24T11:56:05.112Z,28.02
2023-06-24T12:01:39.898Z,28.08
2023-06-24T12:07:12.704Z,27.91
2023-06-24T12:12:25.202Z,27.94
2023-06-24T12:17:38.657Z,28.05
2023-06-24T12:22:56.040Z,28.02
2023-06-24T12:28:02.655Z,28.03
2023-06-24T12:39:02.764Z,28.18
2023-06-24T12:44:09.999Z,28.14
2023-06-24T12:49:17.563Z,28.14
2023-06-24T12:54:36.680Z,28.06
2023-06-24T12:59:47.691Z,27.92
2023-06-24T13:04:57.041Z,27.95
2023-06-24T13:10:05.093Z,27.95
2023-06-24T13:20:28.622Z,27.79
2023-06-24T13:25:49.478Z,27.82
2023-06-24T13:31:46.339Z,27.97
2023-06-24T13:36:58.773Z,27.97
2023-06-24T13:42:03.548Z,27.91
2023-06-24T13:47:44.867Z,27.88
2023-06-24T13:58:47.731Z,27.97
2023-06-24T14:03:56.975Z,27.99
2023-06-24T14:14:18.136Z,28.05
2023-06-24T14:19:31.967Z,27.99
2023-06-24T14:24:45.139Z,27.99
2023-06-24T14:30:03.319Z,28.01
2023-06-24T14:35:12.149Z,27.95
2023-06-24T14:40:41.348Z,27.88
2023-06-24T14:45:48.134Z,28.00
2023-06-24T14:50:52.363Z,28.15
2023-06-24T14:56:00.744Z,28.17
2023-06-24T15:01:06.698Z,28.20
2023-06-24T15:06:12.500Z,28.27
2023-06-24T15:16:48.174Z,28.37
2023-06-24T15:21:55.494Z,28.32
2023-06-24T15:27:03.325Z,28.31
2023-06-24T15:32:09.396Z,28.33
2023-06-24T15:37:16.143Z,28.33
2023-06-24T15:42:21.882Z,28.32
2023-06-24T15:47:26.716Z,28.30
2023-06-24T15:52:34.548Z,28.36
2023-06-24T15:57:48.169Z,28.21
2023-06-24T16:02:58.817Z,28.14
2023-06-24T16:08:07.903Z,28.08
2023-06-24T16:13:15.070Z,28.01
2023-06-24T16:18:32.236Z,27.79
2023-06-24T16:23:38.775Z,27.70
2023-06-24T16:28:54.122Z,27.63
2023-06-24T16:33:57.001Z,27.49
2023-06-24T16:39:05.526Z,27.39
2023-06-24T16:44:11.404Z,27.40
2023-06-24T16:49:13.538Z,27.28
2023-06-24T16:54:24.966Z,27.20
2023-06-24T16:59:38.792Z,27.15
2023-06-24T17:04:43.521Z,27.19
2023-06-24T17:09:49.042Z,27.24
2023-06-24T17:14:57.547Z,27.06
2023-06-24T17:20:10.683Z,26.89
2023-06-24T17:25:18.348Z,26.72
2023-06-24T17:30:26.056Z,26.65
2023-06-24T17:35:32.765Z,26.63
2023-06-24T17:40:48.349Z,26.67
2023-06-24T17:45:58.636Z,26.64
2023-06-24T17:51:03.319Z,26.65
2023-06-24T17:56:06.225Z,26.66
2023-06-24T18:01:16.825Z,26.56
2023-06-24T18:06:24.190Z,26.51
2023-06-24T18:11:29.825Z,26.53
2023-06-24T18:16:40.031Z,26.59
2023-06-24T18:21:46.441Z,26.47
2023-06-24T18:26:56.677Z,26.43
2023-06-24T18:32:09.194Z,26.36
2023-06-24T18:37:17.883Z,26.35
2023-06-24T18:42:26.177Z,26.33
2023-06-24T18:47:35.856Z,26.28
2023-06-24T18:52:42.564Z,26.22
2023-06-24T18:57:51.449Z,26.14
2023-06-24T19:03:00.770Z,26.07
2023-06-24T19:08:08.413Z,25.99
2023-06-24T19:13:13.661Z,25.97
2023-06-24T19:18:16.473Z,25.91
2023-06-24T19:23:27.366Z,25.83
2023-06-24T19:28:38.190Z,25.71
2023-06-24T19:33:50.524Z,25.63
2023-06-24T19:38:58.719Z,25.57
2023-06-24T19:44:08.633Z,25.47
2023-06-24T19:49:15.190Z,25.39
2023-06-24T19:54:27.886Z,25.38
2023-06-24T19:59:37.881Z,25.42
2023-06-24T20:06:57.953Z,25.50
2023-06-24T20:18:40.467Z,25.46
2023-06-24T20:23:54.693Z,25.49
2023-06-24T20:29:03.631Z,25.40
2023-06-24T20:34:06.787Z,25.34
2023-06-24T20:39:18.353Z,25.29
2023-06-24T20:44:25.667Z,25.31
2023-06-24T20:49:36.696Z,25.23
2023-06-24T20:54:41.835Z,25.22
2023-06-24T20:59:45.696Z,25.19
2023-06-24T21:04:52.715Z,25.16
2023-06-24T21:10:09.031Z,25.13
2023-06-24T21:15:14.582Z,25.19
2023-06-24T21:20:23.784Z,25.19
2023-06-24T21:25:28.047Z,25.19
2023-06-24T21:30:32.537Z,25.22
2023-06-24T21:39:46.028Z,25.25
2023-06-24T21:50:08.463Z,25.29
2023-06-24T21:55:49.510Z,25.32
2023-06-24T22:00:57.191Z,25.28
2023-06-24T22:06:07.181Z,25.22
2023-06-24T22:11:11.556Z,25.24
2023-06-24T22:16:22.779Z,25.24
2023-06-24T22:21:47.928Z,25.23
2023-06-24T22:26:54.954Z,25.23
2023-06-24T22:32:13.178Z,25.25
2023-06-24T22:37:39.821Z,25.28
2023-06-24T22:42:44.373Z,25.27
2023-06-24T22:47:55.999Z,25.29
2023-06-24T22:53:07.785Z,25.32
2023-06-24T22:58:23.857Z,25.35
2023-06-24T23:03:36.500Z,25.34
2023-06-24T23:08:57.893Z,25.34
2023-06-24T23:14:07.934Z,25.32
2023-06-24T23:19:11.167Z,25.29
2023-06-24T23:24:32.524Z,25.31
2023-06-24T23:29:41.132Z,25.28
2023-06-24T23:35:16.291Z,25.28
2023-06-24T23:40:20.595Z,25.28
2023-06-24T23:45:48.206Z,25.22
2023-06-24T23:50:54.643Z,25.21
2023-06-24T23:55:59.722Z,25.16
